Time;durP1;ratioP1;P1;durP2;ratioP2;P2;SDS_P1;SDS_P2;PMS_P1;PMS_P2;Temp;Humidity;BMP_temperature;BMP_pressure;BME280_temperature;BME280_humidity;BME280_pressure;Samples;Min_cycle;Max_cycle;Signal;HPM_P1;HPM_P2
2023/04/08 00:00:01;;;;;;;0.10;0.10;;;;;;;3.48;42.69;100848.13;5105661;28;20039;-69
2023/04/08 00:02:27;;;;;;;0.50;0.20;;;;;;;3.40;42.62;100849.13;5105479;28;20117;-68
2023/04/08 00:04:53;;;;;;;0.10;0.10;;;;;;;3.39;42.77;100838.50;5105413;28;20422;-68
2023/04/08 00:07:19;;;;;;;0.10;0.10;;;;;;;3.35;42.90;100846.19;5103421;28;20522;-68
2023/04/08 00:09:45;;;;;;;0.10;0.10;;;;;;;3.33;43.11;100842.03;5085119;28;20043;-68
2023/04/08 00:12:15;;;;;;;0.10;0.10;;;;;;;3.31;43.18;100849.50;5104946;28;20511;-68
2023/04/08 00:14:42;;;;;;;0.10;0.10;;;;;;;3.29;43.27;100846.19;5103615;28;20075;-68
2023/04/08 00:17:10;;;;;;;0.10;0.10;;;;;;;3.28;43.40;100845.31;5105592;28;20112;-68
2023/04/08 00:19:35;;;;;;;;;;;;;;;3.24;43.59;100844.88;5101937;28;20128;-68
2023/04/08 00:22:01;;;;;;;0.10;0.10;;;;;;;3.21;43.52;100839.06;5087675;28;19923;-68
2023/04/08 00:24:27;;;;;;;0.43;0.10;;;;;;;3.19;43.50;100841.13;5104267;28;20522;-68
2023/04/08 00:26:53;;;;;;;0.10;0.10;;;;;;;3.17;43.58;100846.75;5084969;28;20052;-68
2023/04/08 00:29:20;;;;;;;0.10;0.10;;;;;;;3.16;43.60;100849.63;5105580;28;20048;-68
2023/04/08 00:31:46;;;;;;;0.43;0.10;;;;;;;3.13;43.90;100845.47;5102955;28;20043;-68
2023/04/08 00:34:14;;;;;;;0.10;0.10;;;;;;;3.07;44.02;100839.00;5086115;28;20131;-67
2023/04/08 00:36:40;;;;;;;0.10;0.10;;;;;;;3.09;44.17;100847.72;5084915;28;20300;-68
2023/04/08 00:39:06;;;;;;;0.10;0.10;;;;;;;3.04;44.17;100838.56;5068058;28;20042;-68
2023/04/08 00:41:33;;;;;;;0.10;0.10;;;;;;;3.05;44.49;100845.63;5086114;28;20134;-68
2023/04/08 00:43:59;;;;;;;0.10;0.10;;;;;;;3.11;44.25;100847.53;5105793;28;20056;-68
2023/04/08 00:46:26;;;;;;;0.10;0.10;;;;;;;3.10;44.58;100852.09;5106554;28;20043;-68
2023/04/08 00:48:54;;;;;;;0.10;0.10;;;;;;;3.09;44.73;100847.72;5088170;28;20050;-68
2023/04/08 00:51:22;;;;;;;0.20;0.20;;;;;;;3.09;45.04;100845.03;5103303;28;20062;-68
2023/04/08 00:53:48;;;;;;;0.10;0.10;;;;;;;3.12;44.52;100847.34;5083865;28;20102;-69
2023/04/08 00:56:14;;;;;;;0.40;0.10;;;;;;;3.14;44.97;100843.59;5103429;28;20130;-68
2023/04/08 00:58:40;;;;;;;0.10;0.10;;;;;;;3.08;44.85;100843.38;5086834;28;20058;-68
2023/04/08 01:01:11;;;;;;;0.10;0.10;;;;;;;3.04;45.12;100846.66;5102038;28;20051;-68
2023/04/08 01:03:45;;;;;;;0.10;0.10;;;;;;;2.98;45.28;100849.13;5103281;28;20565;-68
2023/04/08 01:06:20;;;;;;;0.10;0.10;;;;;;;2.92;45.52;100847.22;5102046;28;20039;-68
2023/04/08 01:08:50;;;;;;;0.30;0.20;;;;;;;2.91;45.70;100850.94;5084473;28;20406;-68
2023/04/08 01:11:17;;;;;;;0.20;0.20;;;;;;;2.92;46.10;100854.50;5101917;28;20043;-68
2023/04/08 01:13:45;;;;;;;0.45;0.30;;;;;;;2.92;45.68;100846.38;5067389;28;20048;-68
2023/04/08 01:16:14;;;;;;;0.10;0.10;;;;;;;2.89;45.94;100846.75;5069098;28;20046;-67
2023/04/08 01:18:42;;;;;;;0.10;0.10;;;;;;;2.91;46.02;100848.25;5102169;28;20047;-68
2023/04/08 01:21:09;;;;;;;;;;;;;;;2.92;46.08;100843.69;5106846;28;20055;-68
2023/04/08 01:23:44;;;;;;;0.10;0.10;;;;;;;2.86;45.95;100842.63;5083604;28;19924;-68
2023/04/08 01:26:21;;;;;;;0.40;0.15;;;;;;;2.83;46.09;100843.81;5092491;27;20064;-67
2023/04/08 01:28:50;;;;;;;0.22;0.20;;;;;;;2.81;46.24;100850.44;5125543;27;20047;-68
2023/04/08 01:31:17;;;;;;;0.10;0.10;;;;;;;2.76;46.41;100842.97;5101536;28;20059;-68
2023/04/08 01:33:44;;;;;;;0.10;0.10;;;;;;;2.77;46.41;100850.03;5102784;28;20075;-68
2023/04/08 01:36:11;;;;;;;0.10;0.10;;;;;;;2.77;46.61;100851.88;5084407;28;20297;-69
2023/04/08 01:38:38;;;;;;;0.10;0.10;;;;;;;2.79;46.79;100847.13;5090857;28;20075;-68
2023/04/08 01:41:07;;;;;;;0.10;0.10;;;;;;;2.90;46.80;100851.16;5101229;28;20549;-68
2023/04/08 01:43:35;;;;;;;0.10;0.10;;;;;;;2.88;46.66;100847.78;5104060;28;20039;-68
2023/04/08 01:46:05;;;;;;;0.13;0.13;;;;;;;2.83;46.83;100848.41;5085680;28;20040;-69
2023/04/08 01:48:32;;;;;;;0.32;0.10;;;;;;;2.78;46.90;100848.16;5084399;28;20043;-68
2023/04/08 01:51:00;;;;;;;0.10;0.10;;;;;;;2.74;46.89;100852.28;5079481;28;20051;-68
2023/04/08 01:53:26;;;;;;;0.22;0.17;;;;;;;2.72;47.25;100849.78;5094917;28;20042;-68
2023/04/08 01:56:00;;;;;;;0.10;0.10;;;;;;;2.68;47.15;100849.34;5101999;28;20070;-68
2023/04/08 01:58:32;;;;;;;0.10;0.10;;;;;;;2.66;47.22;100856.81;5085567;28;20078;-68
2023/04/08 02:00:59;;;;;;;0.10;0.10;;;;;;;2.62;47.07;100850.13;5103010;28;20082;-69
2023/04/08 02:03:27;;;;;;;;;;;;;;;2.64;47.47;100848.06;5106042;28;20138;-68
2023/04/08 02:05:53;;;;;;;0.10;0.10;;;;;;;2.46;47.45;100835.06;5073243;28;19924;-68
2023/04/08 02:08:19;;;;;;;0.10;0.10;;;;;;;2.51;47.61;100847.97;5106526;28;20421;-69
2023/04/08 02:10:46;;;;;;;0.10;0.10;;;;;;;2.48;47.85;100843.78;5106675;28;20518;-68
2023/04/08 02:13:13;;;;;;;0.10;0.10;;;;;;;2.54;47.98;100848.41;5105645;28;20054;-68
2023/04/08 02:15:45;;;;;;;0.10;0.10;;;;;;;2.54;47.90;100855.69;5105744;28;20043;-68
2023/04/08 02:18:20;;;;;;;0.10;0.10;;;;;;;2.53;47.80;100851.31;5109166;28;20326;-67
2023/04/08 02:20:52;;;;;;;0.10;0.10;;;;;;;2.47;47.93;100838.56;5087587;28;20070;-69
2023/04/08 02:23:20;;;;;;;0.10;0.10;;;;;;;2.45;48.28;100846.88;5099786;28;20044;-67
2023/04/08 02:25:47;;;;;;;0.10;0.10;;;;;;;2.41;48.41;100850.97;5093443;28;20138;-68
2023/04/08 02:28:16;;;;;;;0.10;0.10;;;;;;;2.36;48.49;100853.44;5089138;28;20051;-67
2023/04/08 02:30:47;;;;;;;0.10;0.10;;;;;;;2.32;48.60;100853.00;5068810;28;20096;-68
2023/04/08 02:33:16;;;;;;;0.52;0.20;;;;;;;2.29;48.84;100857.97;5106729;28;20148;-67
2023/04/08 02:35:44;;;;;;;0.15;0.10;;;;;;;2.26;49.02;100859.19;5106008;28;20410;-67
2023/04/08 02:38:11;;;;;;;0.10;0.10;;;;;;;2.25;49.21;100858.31;5090175;28;20498;-67
2023/04/08 02:40:37;;;;;;;0.13;0.10;;;;;;;2.30;49.09;100859.63;5109351;28;20044;-67
2023/04/08 02:43:03;;;;;;;0.38;0.10;;;;;;;2.26;49.12;100865.44;5105867;28;20097;-68
2023/04/08 02:45:36;;;;;;;0.10;0.10;;;;;;;2.27;49.20;100866.25;5108358;28;20085;-67
2023/04/08 02:48:04;;;;;;;0.10;0.10;;;;;;;2.23;49.19;100865.78;5066939;28;20131;-67
2023/04/08 02:50:32;;;;;;;0.22;0.20;;;;;;;2.23;49.33;100864.97;5053731;28;20098;-68
2023/04/08 02:52:58;;;;;;;;;;;;;;;2.21;49.28;100870.53;5085835;28;20051;-67
2023/04/08 02:55:24;;;;;;;0.20;0.20;;;;;;;2.18;49.39;100870.94;5083073;28;19924;-68
2023/04/08 02:57:50;;;;;;;0.10;0.10;;;;;;;2.17;49.54;100866.56;5084478;28;20059;-68
2023/04/08 03:00:16;;;;;;;0.45;0.10;;;;;;;2.20;49.51;100878.84;5087270;28;20506;-67
2023/04/08 03:02:43;;;;;;;0.10;0.10;;;;;;;2.16;49.60;100869.44;5106027;28;20071;-68
2023/04/08 03:05:09;;;;;;;0.10;0.10;;;;;;;2.23;49.46;100867.66;5106049;28;20048;-68
2023/04/08 03:07:36;;;;;;;0.43;0.13;;;;;;;2.28;49.66;100873.31;5087989;28;20134;-68
2023/04/08 03:10:03;;;;;;;0.13;0.13;;;;;;;2.33;49.46;100868.16;5090218;28;20652;-68
2023/04/08 03:12:30;;;;;;;0.20;0.20;;;;;;;2.34;49.53;100869.84;5093447;28;20054;-69
2023/04/08 03:14:56;;;;;;;0.10;0.10;;;;;;;2.32;49.66;100868.38;5105048;28;20104;-68
2023/04/08 03:17:22;;;;;;;0.20;0.20;;;;;;;2.37;49.50;100872.16;5105263;28;20290;-69
2023/04/08 03:19:48;;;;;;;0.40;0.20;;;;;;;2.42;49.63;100868.88;5088511;28;20474;-68
2023/04/08 03:22:15;;;;;;;0.55;0.20;;;;;;;2.46;49.42;100872.84;5105743;28;20425;-68
2023/04/08 03:24:42;;;;;;;0.10;0.10;;;;;;;2.48;49.42;100875.34;5104397;28;20424;-68
2023/04/08 03:27:08;;;;;;;0.10;0.10;;;;;;;2.53;49.38;100872.91;5087302;28;20138;-68
2023/04/08 03:29:34;;;;;;;0.10;0.10;;;;;;;2.60;49.35;100873.78;5087261;28;20071;-68
2023/04/08 03:32:00;;;;;;;0.10;0.10;;;;;;;2.64;49.21;100866.97;5069838;28;20438;-68
2023/04/08 03:34:26;;;;;;;0.17;0.17;;;;;;;2.68;49.08;100873.66;5104622;28;20571;-68
2023/04/08 03:36:52;;;;;;;0.10;0.10;;;;;;;2.71;49.01;100879.69;5103952;28;20124;-68
2023/04/08 03:39:18;;;;;;;0.60;0.15;;;;;;;2.62;49.16;100860.09;5103996;28;20510;-68
2023/04/08 03:41:46;;;;;;;0.17;0.10;;;;;;;2.77;49.20;100878.91;5085756;28;20120;-68
2023/04/08 03:44:12;;;;;;;0.10;0.10;;;;;;;2.81;48.97;100875.63;5106367;28;20047;-68
2023/04/08 03:46:38;;;;;;;0.20;0.20;;;;;;;2.87;49.16;100874.00;5102254;28;20413;-67
2023/04/08 03:49:04;;;;;;;0.38;0.10;;;;;;;2.91;48.88;100877.97;5105289;28;20553;-68
2023/04/08 03:51:30;;;;;;;0.10;0.10;;;;;;;2.93;48.88;100884.00;5104222;28;20069;-67
2023/04/08 03:53:56;;;;;;;0.20;0.20;;;;;;;3.01;48.79;100883.00;5106357;28;20421;-67
2023/04/08 03:56:23;;;;;;;0.10;0.10;;;;;;;3.01;48.74;100887.59;5085353;28;20139;-68
2023/04/08 03:58:51;;;;;;;0.10;0.10;;;;;;;3.04;48.81;100884.50;5104428;28;20422;-68
2023/04/08 04:01:17;;;;;;;0.65;0.30;;;;;;;3.14;48.56;100889.53;5085405;28;20120;-68
2023/04/08 04:03:43;;;;;;;0.20;0.20;;;;;;;3.18;48.44;100882.69;5103493;28;20067;-67
2023/04/08 04:06:09;;;;;;;0.20;0.20;;;;;;;3.26;48.65;100888.78;5103995;28;20043;-67
2023/04/08 04:08:35;;;;;;;0.10;0.10;;;;;;;3.33;48.31;100888.81;5096115;28;20147;-67
2023/04/08 04:11:01;;;;;;;0.10;0.10;;;;;;;3.42;47.94;100885.94;5072674;28;20383;-68
2023/04/08 04:13:27;;;;;;;0.10;0.10;;;;;;;3.46;47.94;100892.63;5085097;28;20131;-70
2023/04/08 04:15:56;;;;;;;0.25;0.20;;;;;;;3.46;47.93;100893.47;5093406;28;20105;-68
2023/04/08 04:18:22;;;;;;;0.20;0.20;;;;;;;3.44;47.77;100884.72;5102090;27;20463;-68
2023/04/08 04:20:48;;;;;;;0.20;0.20;;;;;;;3.52;47.67;100889.94;5120915;27;20472;-68
2023/04/08 04:23:14;;;;;;;0.57;0.20;;;;;;;3.58;47.73;100888.31;5104074;28;20561;-68
2023/04/08 04:25:41;;;;;;;0.20;0.20;;;;;;;3.64;47.56;100881.25;5068571;28;20594;-68
2023/04/08 04:28:08;;;;;;;0.20;0.20;;;;;;;3.71;47.21;100884.81;5104776;28;20051;-68
2023/04/08 04:30:36;;;;;;;0.10;0.10;;;;;;;3.77;47.24;100891.28;5087118;28;20609;-68
2023/04/08 04:33:04;;;;;;;0.20;0.20;;;;;;;3.77;46.97;100892.13;5107840;28;20142;-68
2023/04/08 04:35:29;;;;;;;;;;;;;;;3.86;46.80;100889.22;5104815;28;20096;-68
2023/04/08 04:37:55;;;;;;;0.20;0.20;;;;;;;3.88;46.62;100889.88;5103466;28;20333;-68
2023/04/08 04:40:21;;;;;;;0.10;0.10;;;;;;;3.91;46.54;100889.47;5053334;28;20074;-68
2023/04/08 04:42:47;;;;;;;0.43;0.20;;;;;;;3.96;46.30;100895.94;5075567;28;20193;-68
2023/04/08 04:45:14;;;;;;;0.30;0.20;;;;;;;3.97;46.37;100897.59;5098918;28;20052;-68
2023/04/08 04:47:40;;;;;;;0.30;0.20;;;;;;;4.03;46.42;100904.06;5069609;28;20086;-68
2023/04/08 04:50:09;;;;;;;0.28;0.28;;;;;;;4.20;46.47;100898.25;5106773;28;20134;-68
2023/04/08 04:52:35;;;;;;;0.20;0.20;;;;;;;4.22;46.32;100890.81;5101388;28;20051;-68
2023/04/08 04:55:01;;;;;;;0.20;0.20;;;;;;;4.32;46.04;100901.22;5104347;28;20039;-68
2023/04/08 04:57:29;;;;;;;0.17;0.17;;;;;;;4.32;45.93;100898.50;5106107;28;20506;-68
2023/04/08 04:59:55;;;;;;;0.20;0.20;;;;;;;4.38;46.09;100898.53;5105335;28;20043;-68
2023/04/08 05:02:21;;;;;;;0.50;0.30;;;;;;;4.45;45.90;100893.13;5107873;28;20130;-68
2023/04/08 05:04:47;;;;;;;0.20;0.20;;;;;;;4.50;45.90;100900.59;5103134;28;20043;-68
2023/04/08 05:07:15;;;;;;;0.63;0.20;;;;;;;4.57;45.79;100904.16;5086227;28;20051;-68
2023/04/08 05:09:41;;;;;;;0.52;0.20;;;;;;;4.69;45.57;100901.66;5103935;28;20105;-68
2023/04/08 05:12:07;;;;;;;0.35;0.20;;;;;;;4.77;45.52;100904.16;5098644;28;20048;-68
2023/04/08 05:14:33;;;;;;;0.10;0.10;;;;;;;4.90;45.13;100906.03;5101327;28;20321;-68
2023/04/08 05:16:59;;;;;;;0.20;0.20;;;;;;;4.97;44.90;100906.84;5098726;28;20088;-68
2023/04/08 05:19:25;;;;;;;0.32;0.20;;;;;;;5.11;44.90;100901.41;5100015;28;20112;-68
2023/04/08 05:21:51;;;;;;;0.25;0.25;;;;;;;5.12;44.69;100913.91;5096298;28;20865;-68
2023/04/08 05:24:19;;;;;;;0.20;0.20;;;;;;;5.19;44.64;100917.47;5105409;28;20052;-68
2023/04/08 05:26:46;;;;;;;0.20;0.20;;;;;;;5.24;44.48;100917.66;5106361;27;20575;-68
2023/04/08 05:29:12;;;;;;;0.10;0.10;;;;;;;5.24;44.63;100914.94;5104791;28;20096;-68
2023/04/08 05:31:38;;;;;;;0.22;0.20;;;;;;;5.24;44.60;100914.13;5105635;28;20039;-68
2023/04/08 05:34:05;;;;;;;0.10;0.10;;;;;;;5.23;44.68;100918.69;5104106;28;20044;-68
2023/04/08 05:36:31;;;;;;;0.20;0.20;;;;;;;5.30;44.71;100921.41;5108102;28;20047;-68
2023/04/08 05:38:57;;;;;;;0.20;0.20;;;;;;;5.44;44.41;100924.88;5102844;28;20044;-68
2023/04/08 05:41:24;;;;;;;0.20;0.20;;;;;;;5.49;44.34;100925.09;5065864;28;20100;-68
2023/04/08 05:43:50;;;;;;;;;;;;;;;5.59;44.21;100929.22;5105786;28;20052;-67
2023/04/08 05:46:16;;;;;;;0.30;0.30;;;;;;;5.64;43.99;100926.72;5107197;28;19946;-68
2023/04/08 05:48:42;;;;;;;0.30;0.30;;;;;;;5.78;43.57;100916.66;5104827;28;20478;-68
2023/04/08 05:51:12;;;;;;;0.20;0.20;;;;;;;6.09;42.98;100929.50;5083980;28;20183;-67
2023/04/08 05:53:39;;;;;;;0.20;0.20;;;;;;;6.26;42.86;100923.53;5103251;28;20058;-68
2023/04/08 05:56:05;;;;;;;0.20;0.20;;;;;;;6.43;42.51;100918.41;5103851;28;20134;-68
2023/04/08 05:58:32;;;;;;;0.55;0.22;;;;;;;6.56;42.08;100924.78;5105015;28;20044;-67
2023/04/08 06:00:59;;;;;;;0.20;0.20;;;;;;;6.71;41.90;100921.75;5099334;28;20100;-68
2023/04/08 06:03:25;;;;;;;0.50;0.30;;;;;;;6.90;41.46;100923.47;5100723;28;20056;-67
2023/04/08 06:05:51;;;;;;;0.20;0.20;;;;;;;7.07;41.20;100920.19;5088946;28;20314;-68
2023/04/08 06:08:17;;;;;;;0.20;0.20;;;;;;;7.24;40.96;100918.53;5106363;28;20047;-67
2023/04/08 06:10:49;;;;;;;0.30;0.30;;;;;;;7.50;40.55;100921.19;5075070;28;20820;-68
2023/04/08 06:13:15;;;;;;;0.20;0.20;;;;;;;7.63;40.36;100921.03;5101360;28;20048;-67
2023/04/08 06:15:43;;;;;;;1.05;0.40;;;;;;;7.77;39.95;100916.25;5105574;28;20048;-67
2023/04/08 06:18:09;;;;;;;1.02;0.30;;;;;;;7.89;39.85;100919.06;5102874;28;20065;-68
2023/04/08 06:20:35;;;;;;;0.30;0.30;;;;;;;7.90;39.76;100911.72;5101263;28;20059;-67
2023/04/08 06:23:02;;;;;;;0.30;0.30;;;;;;;8.07;39.53;100914.63;5099369;28;20047;-68
2023/04/08 06:25:28;;;;;;;0.23;0.23;;;;;;;8.27;39.15;100917.06;5104050;28;20055;-68
2023/04/08 06:27:54;;;;;;;0.20;0.20;;;;;;;8.41;38.71;100917.72;5104177;28;20142;-68
2023/04/08 06:30:21;;;;;;;0.30;0.25;;;;;;;8.56;38.59;100911.84;5068303;28;20097;-67
2023/04/08 06:32:48;;;;;;;0.40;0.40;;;;;;;8.56;38.46;100919.19;5101156;28;20052;-67
2023/04/08 06:35:14;;;;;;;0.28;0.22;;;;;;;8.61;38.52;100925.63;5064191;28;20083;-67
2023/04/08 06:37:40;;;;;;;0.47;0.30;;;;;;;8.70;38.27;100927.97;5083538;28;20321;-67
2023/04/08 06:40:09;;;;;;;0.30;0.30;;;;;;;8.79;38.35;100921.94;5085025;28;20427;-67
2023/04/08 06:42:37;;;;;;;0.40;0.40;;;;;;;8.94;37.91;100921.50;5091024;28;20063;-67
2023/04/08 06:45:27;;;;;;;0.30;0.30;;;;;;;9.04;37.64;100922.78;5061814;28;20089;-67
2023/04/08 06:47:55;;;;;;;0.30;0.30;;;;;;;9.17;37.60;100913.56;5086597;28;20051;-67
2023/04/08 06:50:21;;;;;;;0.30;0.30;;;;;;;9.32;37.46;100923.97;5105227;28;20498;-67
2023/04/08 06:52:47;;;;;;;0.30;0.30;;;;;;;9.51;36.81;100917.28;5104128;28;20097;-69
2023/04/08 06:55:13;;;;;;;0.70;0.40;;;;;;;9.76;36.55;100924.38;5068842;28;20208;-68
2023/04/08 06:57:39;;;;;;;0.30;0.30;;;;;;;9.97;36.17;100919.31;5068207;27;20530;-67
2023/04/08 07:00:07;;;;;;;0.63;0.40;;;;;;;10.10;35.93;100920.94;5123776;27;20047;-68
2023/04/08 07:02:34;;;;;;;1.17;0.40;;;;;;;10.15;36.07;100922.94;5109626;27;20139;-67
2023/04/08 07:05:01;;;;;;;0.30;0.30;;;;;;;10.06;36.07;100923.31;5085142;28;20043;-68
2023/04/08 07:07:30;;;;;;;0.30;0.30;;;;;;;10.03;36.18;100912.88;5099886;28;20047;-67
2023/04/08 07:09:56;;;;;;;0.30;0.30;;;;;;;10.16;35.98;100919.13;5086986;28;20083;-67
2023/04/08 07:12:22;;;;;;;0.70;0.40;;;;;;;10.24;36.00;100915.16;5104645;28;20116;-68
2023/04/08 07:14:48;;;;;;;0.30;0.30;;;;;;;10.61;35.41;100912.00;5106196;28;20502;-67
2023/04/08 07:17:14;;;;;;;0.35;0.30;;;;;;;10.65;35.07;100896.75;5068391;28;20043;-68
2023/04/08 07:19:42;;;;;;;0.30;0.30;;;;;;;10.91;34.93;100908.94;5105110;28;20067;-68
2023/04/08 07:22:10;;;;;;;0.22;0.22;;;;;;;11.04;34.69;100906.94;5103241;28;20409;-68
2023/04/08 07:24:36;;;;;;;0.30;0.22;;;;;;;11.12;34.51;100905.66;5106026;28;20043;-68
2023/04/08 07:27:02;;;;;;;0.30;0.30;;;;;;;11.39;34.29;100897.56;5083929;28;20070;-67
2023/04/08 07:29:28;;;;;;;0.40;0.40;;;;;;;11.42;33.99;100901.72;5107122;28;20056;-67
2023/04/08 07:31:55;;;;;;;0.20;0.20;;;;;;;11.48;34.05;100904.25;5101008;28;20547;-68
2023/04/08 07:34:21;;;;;;;0.44;0.34;;;;;;;11.76;33.74;100907.06;4744632;28;10000868;-68
2023/04/08 07:36:47;;;;;;;0.25;0.25;;;;;;;12.13;33.09;100914.66;5082653;28;20058;-68
2023/04/08 07:39:15;;;;;;;0.50;0.40;;;;;;;12.50;32.30;100904.84;5101086;28;20065;-67
2023/04/08 07:41:41;;;;;;;0.40;0.30;;;;;;;12.50;32.38;100907.59;5100194;28;20430;-67
2023/04/08 07:44:07;;;;;;;0.47;0.25;;;;;;;12.45;32.43;100907.53;5082824;28;20055;-68
2023/04/08 07:46:37;;;;;;;0.38;0.32;;;;;;;12.32;32.69;100906.88;5083772;28;20956;-68
2023/04/08 07:49:03;;;;;;;0.20;0.20;;;;;;;12.21;32.98;100905.13;5103976;28;20048;-68
2023/04/08 07:51:29;;;;;;;0.52;0.30;;;;;;;12.18;32.80;100905.66;5117796;27;20059;-68
2023/04/08 07:53:55;;;;;;;0.35;0.35;;;;;;;12.44;32.71;100905.88;5117746;27;20146;-68
2023/04/08 07:56:23;;;;;;;0.28;0.28;;;;;;;12.94;31.88;100916.69;5098379;27;20108;-68
2023/04/08 07:58:49;;;;;;;;;;;;;;;13.17;31.46;100905.34;5098821;27;20055;-68
2023/04/08 08:01:17;;;;;;;0.40;0.40;;;;;;;13.42;31.13;100895.56;5115957;27;19923;-68
2023/04/08 08:03:44;;;;;;;0.63;0.40;;;;;;;14.06;30.92;100914.81;5115768;27;20092;-68
2023/04/08 08:06:11;;;;;;;0.25;0.25;;;;;;;14.69;29.93;100899.22;5098742;27;20135;-68
2023/04/08 08:08:37;;;;;;;0.45;0.40;;;;;;;14.65;29.65;100900.84;5092502;27;20544;-68
2023/04/08 08:11:04;;;;;;;0.20;0.20;;;;;;;14.44;29.61;100898.09;5096835;27;20099;-68
2023/04/08 08:13:32;;;;;;;0.50;0.40;;;;;;;14.20;29.96;100901.34;5114095;27;20104;-68
2023/04/08 08:15:58;;;;;;;0.30;0.30;;;;;;;14.33;29.77;100903.56;5094439;27;20097;-67
2023/04/08 08:18:24;;;;;;;0.50;0.40;;;;;;;14.61;29.17;100901.41;5091752;27;20528;-68
2023/04/08 08:20:50;;;;;;;0.30;0.30;;;;;;;14.92;28.90;100897.00;5095697;27;20090;-68
2023/04/08 08:23:17;;;;;;;0.30;0.30;;;;;;;15.45;28.76;100891.94;5112970;27;20063;-68
2023/04/08 08:25:43;;;;;;;0.30;0.30;;;;;;;16.38;27.34;100898.06;5112496;27;20688;-68
2023/04/08 08:28:09;;;;;;;0.32;0.32;;;;;;;16.91;26.50;100889.06;5111066;27;20053;-68
2023/04/08 08:30:37;;;;;;;0.38;0.38;;;;;;;16.93;26.01;100886.00;5076127;28;20525;-68
2023/04/08 08:33:03;;;;;;;0.30;0.30;;;;;;;16.95;26.21;100892.06;5112700;27;20068;-68
2023/04/08 08:35:30;;;;;;;0.30;0.30;;;;;;;16.91;26.27;100882.72;5110371;27;21139;-66
2023/04/08 08:37:56;;;;;;;0.30;0.30;;;;;;;17.08;26.14;100879.53;5096299;27;20463;-66
2023/04/08 08:40:22;;;;;;;0.45;0.45;;;;;;;17.28;25.59;100879.31;5111250;27;20035;-66
2023/04/08 08:42:53;;;;;;;0.40;0.40;;;;;;;17.97;25.12;100880.09;5112635;27;20135;-66
2023/04/08 08:45:20;;;;;;;0.40;0.40;;;;;;;19.05;24.06;100873.94;5110571;27;20064;-67
2023/04/08 08:47:47;;;;;;;0.40;0.40;;;;;;;19.52;22.94;100863.59;5093399;27;20054;-68
2023/04/08 08:50:14;;;;;;;0.40;0.40;;;;;;;19.21;23.26;100866.97;5095122;27;20511;-69
2023/04/08 08:52:47;;;;;;;0.40;0.40;;;;;;;19.08;23.47;100865.84;5112508;27;20101;-68
2023/04/08 08:55:14;;;;;;;0.40;0.40;;;;;;;18.85;23.51;100867.66;5110334;27;20051;-68
2023/04/08 08:57:40;;;;;;;0.40;0.40;;;;;;;19.04;22.88;100872.31;5113657;27;20047;-68
2023/04/08 09:00:08;;;;;;;0.40;0.40;;;;;;;19.02;22.78;100880.91;5059164;27;20513;-69
2023/04/08 09:02:34;;;;;;;0.40;0.40;;;;;;;19.05;22.56;100872.00;5093963;27;20147;-69
2023/04/08 09:05:03;;;;;;;0.40;0.40;;;;;;;18.53;22.53;100863.78;5112857;27;20442;-68
2023/04/08 09:07:34;;;;;;;0.60;0.60;;;;;;;18.69;23.00;100869.84;5111434;27;20395;-69
2023/04/08 09:10:00;;;;;;;0.50;0.50;;;;;;;19.19;22.75;100865.63;5093682;27;20043;-69
2023/04/08 09:12:27;;;;;;;0.60;0.60;;;;;;;19.56;22.14;100861.81;5092821;27;20043;-67
2023/04/08 09:15:03;;;;;;;0.60;0.60;;;;;;;19.78;22.41;100857.50;5111089;27;20531;-67
2023/04/08 09:17:34;;;;;;;0.60;0.60;;;;;;;20.13;21.79;100862.53;5115723;27;20048;-68
2023/04/08 09:20:14;;;;;;;0.60;0.60;;;;;;;19.86;21.26;100858.72;5091972;27;20518;-67
2023/04/08 09:22:58;;;;;;;0.50;0.50;;;;;;;19.13;21.85;100853.84;5115173;27;20142;-67
2023/04/08 09:25:26;;;;;;;0.60;0.60;;;;;;;18.83;22.39;100865.16;5082341;27;20063;-68
2023/04/08 09:27:53;;;;;;;0.60;0.60;;;;;;;19.02;22.07;100869.03;5073317;27;20525;-67
2023/04/08 09:30:21;;;;;;;0.70;0.70;;;;;;;19.11;21.94;100865.25;5091117;28;20131;-67
2023/04/08 09:32:48;;;;;;;0.85;0.70;;;;;;;19.97;21.35;100854.56;5110362;27;20694;-67
2023/04/08 09:35:17;;;;;;;0.70;0.70;;;;;;;20.50;20.00;100851.38;5075521;27;20046;-68
2023/04/08 09:37:43;;;;;;;0.70;0.70;;;;;;;20.35;20.23;100856.19;5095289;27;20051;-68
2023/04/08 09:40:10;;;;;;;0.70;0.70;;;;;;;20.40;20.22;100856.06;5107928;27;20047;-67
2023/04/08 09:42:40;;;;;;;0.75;0.75;;;;;;;19.77;20.48;100850.31;5093330;27;20053;-67
2023/04/08 09:45:08;;;;;;;0.70;0.70;;;;;;;19.21;21.25;100849.53;5109527;27;20136;-68
2023/04/08 09:47:42;;;;;;;0.80;0.80;;;;;;;18.68;22.12;100855.19;5087987;28;20050;-67
2023/04/08 09:50:08;;;;;;;0.80;0.80;;;;;;;18.79;22.58;100855.81;5091132;28;20637;-67
2023/04/08 09:52:44;;;;;;;0.85;0.80;;;;;;;19.65;20.86;100836.13;5108218;27;20516;-67
2023/04/08 09:55:12;;;;;;;0.95;0.90;;;;;;;20.03;20.05;100841.41;5070723;28;20540;-67
2023/04/08 09:57:40;;;;;;;0.80;0.80;;;;;;;20.52;19.76;100847.16;5108644;27;20514;-67
2023/04/08 10:00:10;;;;;;;0.80;0.80;;;;;;;20.87;19.47;100840.19;5081264;28;20050;-69
2023/04/08 10:02:52;;;;;;;0.80;0.80;;;;;;;20.65;20.00;100839.88;5086849;28;20391;-68
2023/04/08 10:05:20;;;;;;;0.90;0.90;;;;;;;20.98;19.74;100833.19;5090676;28;20039;-68
2023/04/08 10:07:49;;;;;;;0.90;0.90;;;;;;;21.98;18.92;100834.75;5094699;28;20058;-68
2023/04/08 10:10:15;;;;;;;0.90;0.90;;;;;;;22.47;18.52;100828.97;5092447;28;20048;-68
2023/04/08 10:12:42;;;;;;;1.00;1.00;;;;;;;22.62;18.58;100838.78;5110780;28;20055;-69
2023/04/08 10:15:25;;;;;;;0.90;0.90;;;;;;;22.43;18.65;100845.50;5105527;28;20043;-69
2023/04/08 10:17:52;;;;;;;0.90;0.90;;;;;;;22.80;17.96;100833.97;5107093;28;20048;-69
2023/04/08 10:20:41;;;;;;;0.90;0.90;;;;;;;22.42;18.28;100824.38;5107809;28;20131;-68
2023/04/08 10:23:10;;;;;;;0.90;0.90;;;;;;;22.88;17.97;100830.34;5089793;27;20056;-68
2023/04/08 10:25:37;;;;;;;0.90;0.90;;;;;;;22.60;17.89;100832.72;5094647;27;20141;-68
2023/04/08 10:28:24;;;;;;;0.90;0.90;;;;;;;21.96;18.44;100826.72;5114000;27;20059;-68
2023/04/08 10:30:50;;;;;;;;;;;;;;;22.17;18.74;100820.50;5078878;27;20519;-68
2023/04/08 10:33:18;;;;;;;0.90;0.90;;;;;;;22.41;18.16;100822.75;5097509;27;19923;-69
2023/04/08 10:35:54;;;;;;;0.90;0.90;;;;;;;22.43;18.47;100819.63;5113307;27;20138;-69
2023/04/08 10:38:21;;;;;;;1.00;1.00;;;;;;;22.79;18.20;100823.97;5110472;27;20047;-68
2023/04/08 10:40:48;;;;;;;1.17;1.10;;;;;;;23.18;17.98;100826.78;5088596;28;20517;-69
2023/04/08 10:43:14;;;;;;;;;;;;;;;23.86;17.57;100802.72;5099538;28;20083;-68
2023/04/08 10:45:42;;;;;;;1.10;1.10;;;;;;;23.87;17.30;100821.09;5099349;28;20083;-69
2023/04/08 10:48:16;;;;;;;1.10;1.10;;;;;;;24.07;17.10;100816.69;5079806;28;20137;-69
2023/04/08 10:50:43;;;;;;;1.10;1.10;;;;;;;24.11;17.26;100809.25;5102659;28;20051;-68
2023/04/08 10:53:10;;;;;;;1.20;1.10;;;;;;;24.72;16.96;100806.97;5085934;28;20053;-69
2023/04/08 10:55:37;;;;;;;1.10;1.10;;;;;;;25.17;16.72;100805.28;5104946;28;20048;-69
2023/04/08 10:58:07;;;;;;;0.90;0.90;;;;;;;24.92;16.35;100802.47;5106765;28;20087;-69
2023/04/08 11:00:35;;;;;;;1.25;1.20;;;;;;;24.92;16.34;100800.50;5108278;28;20066;-69
2023/04/08 11:03:02;;;;;;;2.25;1.10;;;;;;;24.91;16.45;100798.03;5089602;28;20051;-69
2023/04/08 11:05:28;;;;;;;1.17;1.10;;;;;;;24.77;16.36;100796.41;5087309;28;20047;-69
2023/04/08 11:07:54;;;;;;;1.20;1.20;;;;;;;24.87;16.40;100799.91;5085485;28;20048;-68
2023/04/08 11:10:20;;;;;;;1.10;1.10;;;;;;;25.21;16.54;100789.41;5087149;28;20135;-68
2023/04/08 11:12:48;;;;;;;1.10;1.10;;;;;;;25.25;16.22;100784.75;5087697;28;20052;-69
2023/04/08 11:15:15;;;;;;;1.20;1.20;;;;;;;24.34;17.41;100781.75;5105593;28;20039;-68
2023/04/08 11:17:42;;;;;;;1.20;1.20;;;;;;;24.56;17.19;100781.69;5105053;28;20051;-69
2023/04/08 11:20:09;;;;;;;1.20;1.20;;;;;;;24.95;16.59;100787.78;5104144;28;20056;-69
2023/04/08 11:22:35;;;;;;;1.30;1.20;;;;;;;25.19;16.20;100780.56;5105266;28;20432;-68
2023/04/08 11:25:02;;;;;;;1.30;1.20;;;;;;;24.82;16.36;100778.59;5101762;28;20121;-69
2023/04/08 11:27:29;;;;;;;1.30;1.20;;;;;;;25.24;16.19;100773.91;5088247;28;20092;-68
2023/04/08 11:29:59;;;;;;;1.13;1.13;;;;;;;24.99;16.36;100769.16;5112553;27;20043;-70
2023/04/08 11:32:25;;;;;;;1.67;1.20;;;;;;;24.77;16.85;100782.41;5104755;28;20066;-69